Terminal Aerodrome Forecast
Issued by NWS Albuquerque, NM

Home | Current Version | Previous Version | Text Only | Print | Product List | Glossary On
Versions: 1 2 3 4 5 6 7 8 9 10 11 12
000
FTUS45 KABQ 011737
TAFABQ
TAF
KABQ 011737Z 0118/0218 21007KT P6SM SCT090
     FM020000 22010KT P6SM VCSH BKN090
      TEMPO 0200/0203 VRB15G25KT 6SM -TSRA BKN080CB
     FM020300 10011KT P6SM VCSH BKN100
     FM020700 08006KT P6SM BKN100=

USA.gov is the U.S. government's official web portal to all federal, state and local government web resources and services.